createdAt,value
2022-11-03T00:02:19.288Z,82.28
2022-11-03T00:04:47.798Z,82.28
2022-11-03T00:07:22.766Z,82.13
2022-11-03T00:09:51.080Z,82.30
2022-11-03T00:12:19.336Z,82.41
2022-11-03T00:14:47.635Z,82.55
2022-11-03T00:17:15.825Z,82.57
2022-11-03T00:19:44.091Z,82.67
2022-11-03T00:22:12.178Z,82.73
2022-11-03T00:24:40.349Z,82.77
2022-11-03T00:27:08.610Z,82.73
2022-11-03T00:29:37.053Z,82.71
2022-11-03T00:32:05.669Z,82.72
2022-11-03T00:34:33.960Z,82.69
2022-11-03T00:37:02.186Z,82.82
2022-11-03T00:39:30.387Z,83.01
2022-11-03T00:41:58.696Z,83.07
2022-11-03T00:44:27.535Z,83.18
2022-11-03T00:46:57.085Z,83.25
2022-11-03T00:49:25.316Z,83.31
2022-11-03T00:51:53.579Z,83.30
2022-11-03T00:54:21.799Z,83.23
2022-11-03T00:56:50.022Z,83.30
2022-11-03T00:59:18.470Z,83.36
2022-11-03T01:01:47.891Z,83.14
2022-11-03T01:04:36.467Z,83.09
2022-11-03T01:07:06.001Z,83.24
2022-11-03T01:09:40.257Z,83.33
2022-11-03T01:12:13.140Z,83.36
2022-11-03T01:15:01.617Z,83.38
2022-11-03T01:17:29.931Z,83.19
2022-11-03T01:19:58.140Z,83.14
2022-11-03T01:22:26.364Z,82.89
2022-11-03T01:24:54.632Z,82.97
2022-11-03T01:27:23.577Z,83.18
2022-11-03T01:29:51.786Z,83.10
2022-11-03T01:32:20.010Z,83.20
2022-11-03T01:34:48.127Z,83.33
2022-11-03T01:37:16.294Z,83.36
2022-11-03T01:39:44.505Z,83.22
2022-11-03T01:42:15.082Z,83.19
2022-11-03T01:44:51.952Z,83.26
2022-11-03T01:47:32.483Z,83.20
2022-11-03T01:50:06.438Z,83.14
2022-11-03T01:52:40.440Z,83.23
2022-11-03T01:55:15.329Z,83.33
2022-11-03T01:58:02.921Z,83.32
2022-11-03T02:00:31.470Z,83.33
2022-11-03T02:03:01.170Z,83.34
2022-11-03T02:05:30.588Z,83.34
2022-11-03T02:08:33.975Z,83.46
2022-11-03T02:11:22.157Z,83.46
2022-11-03T02:13:50.416Z,83.52
2022-11-03T02:16:21.176Z,83.50
2022-11-03T02:18:50.446Z,83.38
2022-11-03T02:21:29.618Z,83.53
2022-11-03T02:24:53.911Z,83.55
2022-11-03T02:27:23.179Z,83.47
2022-11-03T02:29:51.515Z,83.57
2022-11-03T02:32:27.179Z,83.52
2022-11-03T02:35:09.145Z,83.60
2022-11-03T02:37:42.187Z,83.66
2022-11-03T02:40:17.919Z,83.63
2022-11-03T02:42:51.221Z,83.71
2022-11-03T02:45:23.599Z,83.83
2022-11-03T02:47:55.975Z,83.78
2022-11-03T02:50:33.682Z,83.80
2022-11-03T02:53:02.010Z,83.88
2022-11-03T02:55:38.375Z,84.01
2022-11-03T02:58:18.605Z,84.19
2022-11-03T03:00:55.679Z,84.31
2022-11-03T03:03:30.658Z,84.28
2022-11-03T03:06:07.678Z,84.38
2022-11-03T03:08:43.225Z,84.52
2022-11-03T03:11:14.306Z,84.53
2022-11-03T03:13:44.750Z,84.46
2022-11-03T03:16:21.116Z,84.85
2022-11-03T03:19:04.659Z,85.13
2022-11-03T03:21:39.130Z,85.35
2022-11-03T03:24:35.359Z,85.35
2022-11-03T03:27:07.899Z,85.45
2022-11-03T03:30:00.385Z,85.51
2022-11-03T03:32:33.597Z,85.50
2022-11-03T03:35:05.469Z,85.65
2022-11-03T03:37:37.758Z,85.59
2022-11-03T03:40:12.915Z,85.50
2022-11-03T03:42:43.925Z,85.42
2022-11-03T03:45:14.789Z,85.56
2022-11-03T03:47:43.779Z,85.75
2022-11-03T03:50:12.260Z,85.79
2022-11-03T03:52:40.437Z,85.71
2022-11-03T03:55:18.925Z,85.83
2022-11-03T03:57:47.810Z,86.10
2022-11-03T04:00:16.574Z,86.06
2022-11-03T04:02:44.762Z,86.00
2022-11-03T04:05:13.022Z,85.98
2022-11-03T04:07:47.105Z,85.96
2022-11-03T04:10:16.739Z,86.14
2022-11-03T04:13:04.645Z,86.25
2022-11-03T04:15:51.930Z,86.39
2022-11-03T04:18:41.771Z,86.44
2022-11-03T04:21:33.064Z,86.51
2022-11-03T04:24:01.376Z,86.62
2022-11-03T04:26:30.050Z,86.51
2022-11-03T04:28:58.774Z,86.56
2022-11-03T04:31:29.279Z,86.59
2022-11-03T04:33:57.550Z,86.71
2022-11-03T04:36:26.618Z,86.79
2022-11-03T04:38:54.861Z,86.83
2022-11-03T04:41:25.696Z,86.64
2022-11-03T04:43:54.630Z,86.83
2022-11-03T04:46:28.899Z,86.78
2022-11-03T04:49:02.159Z,86.80
2022-11-03T04:51:34.151Z,86.83
2022-11-03T04:54:16.732Z,86.78
2022-11-03T04:56:44.798Z,86.77
2022-11-03T04:59:17.355Z,86.71
2022-11-03T05:01:46.815Z,86.76
2022-11-03T05:04:18.476Z,86.93
2022-11-03T05:06:52.767Z,87.02
2022-11-03T05:09:29.670Z,87.12
2022-11-03T05:11:57.863Z,87.04
2022-11-03T05:14:32.057Z,86.92
2022-11-03T05:17:02.433Z,86.83
2022-11-03T05:19:39.897Z,86.73
2022-11-03T05:22:17.265Z,86.77
2022-11-03T05:24:45.732Z,86.78
2022-11-03T05:27:21.167Z,86.82
2022-11-03T05:29:52.139Z,86.98
2022-11-03T05:32:28.555Z,87.02
2022-11-03T05:34:57.311Z,86.88
2022-11-03T05:37:34.138Z,86.79
2022-11-03T05:40:10.838Z,86.95
2022-11-03T05:42:45.462Z,86.97
2022-11-03T05:45:21.620Z,87.07
2022-11-03T05:47:53.055Z,87.07
2022-11-03T05:50:34.742Z,87.13
2022-11-03T05:53:32.277Z,87.04
2022-11-03T05:56:04.711Z,86.91
2022-11-03T05:58:38.459Z,86.87
2022-11-03T06:01:26.788Z,86.85
2022-11-03T06:03:56.955Z,86.80
2022-11-03T06:06:38.539Z,86.74
2022-11-03T06:09:19.391Z,86.61
2022-11-03T06:11:47.833Z,86.39
2022-11-03T06:14:36.141Z,86.08
2022-11-03T06:17:07.774Z,85.87
2022-11-03T06:19:58.407Z,85.59
2022-11-03T06:22:51.936Z,85.32
2022-11-03T06:25:26.135Z,85.08
2022-11-03T06:28:00.087Z,84.65
2022-11-03T06:30:44.967Z,84.12
2022-11-03T06:33:16.533Z,83.26
2022-11-03T06:35:45.657Z,82.84
2022-11-03T06:38:20.228Z,82.41
2022-11-03T06:40:52.148Z,82.38
2022-11-03T06:43:29.031Z,82.10
2022-11-03T06:46:09.329Z,81.46
2022-11-03T06:48:39.276Z,80.67
2022-11-03T06:51:21.061Z,79.93
2022-11-03T06:53:51.647Z,79.94
2022-11-03T06:56:23.172Z,79.49
2022-11-03T06:58:54.537Z,79.73
2022-11-03T07:01:30.637Z,79.64
2022-11-03T07:04:19.340Z,79.58
2022-11-03T07:06:53.002Z,79.23
2022-11-03T07:09:26.401Z,78.97
2022-11-03T07:11:59.173Z,77.91
2022-11-03T07:14:34.006Z,77.25
2022-11-03T07:17:22.250Z,76.91
2022-11-03T07:19:50.471Z,77.13
2022-11-03T07:22:26.308Z,76.81
2022-11-03T07:25:06.558Z,75.11
2022-11-03T07:27:38.854Z,73.98
2022-11-03T07:30:24.073Z,73.68
2022-11-03T07:32:54.149Z,71.67
2022-11-03T07:38:38.918Z,68.91
2022-11-03T07:41:18.500Z,67.78
2022-11-03T07:43:54.069Z,65.39
2022-11-03T07:46:24.218Z,64.38
2022-11-03T07:49:02.045Z,63.88
2022-11-03T07:51:37.018Z,63.85
2022-11-03T07:54:23.894Z,63.12
2022-11-03T07:56:59.957Z,62.76
2022-11-03T07:59:31.314Z,63.99
2022-11-03T08:02:00.872Z,62.19
2022-11-03T08:04:32.463Z,60.96
2022-11-03T08:07:00.662Z,60.25
2022-11-03T08:09:28.889Z,60.22
2022-11-03T08:11:57.017Z,59.13
2022-11-03T08:14:28.051Z,57.82
2022-11-03T08:16:56.719Z,57.38
2022-11-03T08:19:25.058Z,56.46
2022-11-03T08:21:53.285Z,55.78
2022-11-03T08:24:21.586Z,56.48
2022-11-03T08:26:50.518Z,56.84
2022-11-03T08:29:19.195Z,54.65
2022-11-03T08:31:47.819Z,53.73
2022-11-03T08:34:16.080Z,54.61
2022-11-03T08:36:44.365Z,54.29
2022-11-03T08:39:13.114Z,53.15
2022-11-03T08:41:41.250Z,53.50
2022-11-03T08:44:09.676Z,53.17
2022-11-03T08:46:38.304Z,51.06
2022-11-03T08:49:07.555Z,50.32
2022-11-03T08:51:37.889Z,50.12
2022-11-03T08:54:10.254Z,49.64
2022-11-03T08:56:38.455Z,50.54
2022-11-03T08:59:06.659Z,52.93
2022-11-03T09:01:34.990Z,54.62
2022-11-03T09:04:04.194Z,54.25
2022-11-03T09:06:32.493Z,53.75
2022-11-03T09:11:49.113Z,53.15
2022-11-03T09:14:17.945Z,50.95
2022-11-03T09:16:46.358Z,49.80
2022-11-03T09:19:14.588Z,50.11
2022-11-03T09:21:42.947Z,51.70
2022-11-03T09:24:11.225Z,51.61
2022-11-03T09:26:39.397Z,50.53
2022-11-03T09:29:07.676Z,48.64
2022-11-03T09:31:36.265Z,48.35
2022-11-03T09:34:04.779Z,46.78
2022-11-03T09:36:33.116Z,47.37
2022-11-03T09:39:02.131Z,47.23
2022-11-03T09:41:53.848Z,47.38
2022-11-03T09:44:20.508Z,47.57
2022-11-03T09:46:51.704Z,48.24
2022-11-03T09:49:23.674Z,48.70
2022-11-03T09:51:54.646Z,48.18
2022-11-03T09:54:23.148Z,48.88
2022-11-03T09:56:51.391Z,48.29
2022-11-03T09:59:22.317Z,48.52
2022-11-03T10:01:53.897Z,49.11
2022-11-03T10:04:28.336Z,48.26
2022-11-03T10:06:57.438Z,46.80
2022-11-03T10:09:29.248Z,45.73
2022-11-03T10:11:57.693Z,46.16
2022-11-03T10:14:25.880Z,45.28
2022-11-03T10:17:02.445Z,44.01
2022-11-03T10:19:32.355Z,44.69
2022-11-03T10:22:00.460Z,44.30
2022-11-03T10:24:28.517Z,42.78
2022-11-03T10:26:56.758Z,42.68
2022-11-03T10:29:27.496Z,43.24
2022-11-03T10:31:58.951Z,43.97
2022-11-03T10:34:39.734Z,42.59
2022-11-03T10:37:21.336Z,43.27
2022-11-03T10:39:51.785Z,43.06
2022-11-03T10:42:35.536Z,43.46
2022-11-03T10:45:19.781Z,42.35
2022-11-03T10:48:02.478Z,40.83
2022-11-03T10:50:31.197Z,42.01
2022-11-03T10:52:59.517Z,41.93
2022-11-03T10:55:28.302Z,42.07
2022-11-03T10:57:58.714Z,42.41
2022-11-03T11:00:26.857Z,42.51
2022-11-03T11:03:00.928Z,42.63
2022-11-03T11:05:29.435Z,42.49
2022-11-03T11:07:59.701Z,41.41
2022-11-03T11:10:31.502Z,40.23
2022-11-03T11:13:06.047Z,38.86
2022-11-03T11:15:47.885Z,38.43
2022-11-03T11:18:42.419Z,36.67
2022-11-03T11:21:17.900Z,35.16
2022-11-03T11:23:48.379Z,36.62
2022-11-03T11:26:30.833Z,36.14
2022-11-03T11:29:09.147Z,36.49
2022-11-03T11:31:39.734Z,37.52
2022-11-03T11:34:34.069Z,39.71
2022-11-03T11:37:02.503Z,39.78
2022-11-03T11:39:31.469Z,37.12
2022-11-03T11:42:21.187Z,36.81
2022-11-03T11:44:52.082Z,37.67
2022-11-03T11:47:41.539Z,37.31
2022-11-03T11:50:09.759Z,36.47
2022-11-03T11:53:08.609Z,36.31
2022-11-03T11:55:48.953Z,35.33
2022-11-03T11:58:23.099Z,33.95
2022-11-03T12:01:03.523Z,33.02
2022-11-03T12:03:51.609Z,32.32
2022-11-03T12:06:58.606Z,32.27
2022-11-03T12:09:28.463Z,32.14
2022-11-03T12:12:18.213Z,32.53
2022-11-03T12:14:46.485Z,33.67
2022-11-03T12:17:14.609Z,34.40
2022-11-03T12:19:47.800Z,35.43
2022-11-03T12:22:26.328Z,36.03
2022-11-03T12:24:57.818Z,37.22
2022-11-03T12:27:28.090Z,38.56
2022-11-03T12:29:59.669Z,39.98
2022-11-03T12:32:35.755Z,40.33
2022-11-03T12:35:05.739Z,40.82
2022-11-03T12:37:38.420Z,41.72
2022-11-03T12:40:07.854Z,42.76
2022-11-03T12:42:36.035Z,43.98
2022-11-03T12:45:05.197Z,43.37
2022-11-03T12:47:33.225Z,42.88
2022-11-03T12:50:01.332Z,42.16
2022-11-03T12:52:29.443Z,41.37
2022-11-03T12:54:57.483Z,40.40
2022-11-03T12:57:25.850Z,39.91
2022-11-03T12:59:54.130Z,39.77
2022-11-03T13:02:22.689Z,39.25
2022-11-03T13:04:50.971Z,38.52
2022-11-03T13:07:25.631Z,37.72
2022-11-03T13:09:56.296Z,36.83
2022-11-03T13:12:34.119Z,35.93
2022-11-03T13:15:07.193Z,35.22
2022-11-03T13:17:59.343Z,34.53
2022-11-03T13:20:23.391Z,33.31
2022-11-03T13:22:51.633Z,33.29
2022-11-03T13:25:19.864Z,32.57
2022-11-03T13:27:53.889Z,32.40
2022-11-03T13:30:26.407Z,32.28
2022-11-03T13:32:54.643Z,31.48
2022-11-03T13:35:24.098Z,30.97
2022-11-03T13:37:52.283Z,32.34
2022-11-03T13:43:09.596Z,32.15
2022-11-03T13:45:38.250Z,31.16
2022-11-03T13:50:56.381Z,30.55
2022-11-03T13:56:18.962Z,30.51
2022-11-03T14:01:37.831Z,31.02
2022-11-03T14:06:55.895Z,32.25
2022-11-03T14:09:24.514Z,33.25
2022-11-03T14:12:11.511Z,34.00
2022-11-03T14:14:42.938Z,34.95
2022-11-03T14:17:14.091Z,35.64
2022-11-03T14:19:47.225Z,36.40
2022-11-03T14:22:18.074Z,37.60
2022-11-03T14:24:46.527Z,37.89
2022-11-03T14:27:16.139Z,38.69
2022-11-03T14:29:44.751Z,40.56
2022-11-03T14:32:13.070Z,42.80
2022-11-03T14:34:41.663Z,43.90
2022-11-03T14:37:11.392Z,45.19
2022-11-03T14:39:40.514Z,46.07
2022-11-03T14:42:16.133Z,47.96
2022-11-03T14:44:46.628Z,49.18
2022-11-03T14:47:23.654Z,49.50
2022-11-03T14:49:51.915Z,50.23
2022-11-03T14:52:20.146Z,52.08
2022-11-03T14:54:48.534Z,53.57
2022-11-03T14:57:16.683Z,55.30
2022-11-03T14:59:47.906Z,56.69
2022-11-03T15:02:19.203Z,58.09
2022-11-03T15:04:47.716Z,59.05
2022-11-03T15:07:15.752Z,59.90
2022-11-03T15:09:43.966Z,60.65
2022-11-03T15:12:12.240Z,61.35
2022-11-03T15:14:40.779Z,61.71
2022-11-03T15:17:09.152Z,62.24
2022-11-03T15:19:37.475Z,62.98
2022-11-03T15:22:05.854Z,63.63
2022-11-03T15:27:22.638Z,64.66
2022-11-03T15:29:50.855Z,65.07
2022-11-03T15:32:19.147Z,65.47
2022-11-03T15:34:47.399Z,65.90
2022-11-03T15:37:15.884Z,66.12
2022-11-03T15:39:44.015Z,66.59
2022-11-03T15:42:12.654Z,67.12
2022-11-03T15:44:40.837Z,67.71
2022-11-03T15:47:09.196Z,68.14
2022-11-03T15:49:37.637Z,68.30
2022-11-03T15:52:05.922Z,68.60
2022-11-03T15:54:38.438Z,68.88
2022-11-03T15:57:10.430Z,69.08
2022-11-03T15:59:39.509Z,69.31
2022-11-03T16:02:27.720Z,69.54
2022-11-03T16:04:57.398Z,69.96
2022-11-03T16:07:26.256Z,70.38
2022-11-03T16:09:54.605Z,70.52
2022-11-03T16:12:24.813Z,70.63
2022-11-03T16:14:53.836Z,70.91
2022-11-03T16:17:23.031Z,71.23
2022-11-03T16:19:51.272Z,71.68
2022-11-03T16:22:19.540Z,71.92
2022-11-03T16:24:49.034Z,72.34
2022-11-03T16:27:17.801Z,72.78
2022-11-03T16:29:46.077Z,73.01
2022-11-03T16:32:14.416Z,73.18
2022-11-03T16:34:42.913Z,73.41
2022-11-03T16:37:11.671Z,73.74
2022-11-03T16:39:39.992Z,73.88
2022-11-03T16:42:08.685Z,74.16
2022-11-03T16:44:36.955Z,74.52
2022-11-03T16:47:05.658Z,74.64
2022-11-03T16:49:34.334Z,74.82
2022-11-03T16:52:02.637Z,74.94
2022-11-03T16:54:30.893Z,75.31
2022-11-03T16:56:59.697Z,75.98
2022-11-03T16:59:27.950Z,76.55
2022-11-03T17:01:57.203Z,76.85
2022-11-03T17:04:25.825Z,76.91
2022-11-03T17:06:54.272Z,76.96
2022-11-03T17:09:22.580Z,76.92
2022-11-03T17:11:50.715Z,76.94
2022-11-03T17:14:19.013Z,76.94
2022-11-03T17:16:48.895Z,77.18
2022-11-03T17:19:17.077Z,77.33
2022-11-03T17:21:45.434Z,77.63
2022-11-03T17:24:13.715Z,77.78
2022-11-03T17:27:04.350Z,77.92
2022-11-03T17:30:00.345Z,78.24
2022-11-03T17:32:37.713Z,78.45
2022-11-03T17:35:24.295Z,78.65
2022-11-03T17:37:53.376Z,78.85
2022-11-03T17:40:25.233Z,79.10
2022-11-03T17:42:54.038Z,79.37
2022-11-03T17:45:24.261Z,79.67
2022-11-03T17:47:54.281Z,79.85
2022-11-03T17:50:24.344Z,79.67
2022-11-03T17:52:54.813Z,79.60
2022-11-03T17:55:30.747Z,79.70
2022-11-03T17:58:05.117Z,79.66
2022-11-03T18:00:33.982Z,79.56
2022-11-03T18:03:02.351Z,79.49
2022-11-03T18:05:32.399Z,79.47
2022-11-03T18:08:06.087Z,79.45
2022-11-03T18:10:39.601Z,79.43
2022-11-03T18:13:25.291Z,79.44
2022-11-03T18:16:06.253Z,79.44
2022-11-03T18:18:42.927Z,79.46
2022-11-03T18:21:24.114Z,79.60
2022-11-03T18:23:52.453Z,79.96
2022-11-03T18:26:24.832Z,80.25
2022-11-03T18:28:54.187Z,80.32
2022-11-03T18:31:51.180Z,80.38
2022-11-03T18:34:26.059Z,80.56
2022-11-03T18:36:55.799Z,80.54
2022-11-03T18:39:30.216Z,80.57
2022-11-03T18:41:58.555Z,80.58
2022-11-03T18:44:29.575Z,80.61
2022-11-03T18:46:58.701Z,80.73
2022-11-03T18:49:27.807Z,80.92
2022-11-03T18:52:03.837Z,81.06
2022-11-03T18:54:34.940Z,81.12
2022-11-03T18:57:04.366Z,81.33
2022-11-03T18:59:37.360Z,81.47
2022-11-03T19:02:31.861Z,81.63
2022-11-03T19:05:00.301Z,81.79
2022-11-03T19:07:31.868Z,81.84
2022-11-03T19:10:00.896Z,81.93
2022-11-03T19:12:29.374Z,82.11
2022-11-03T19:14:57.769Z,82.25
2022-11-03T19:17:30.418Z,82.41
2022-11-03T19:19:58.635Z,82.38
2022-11-03T19:22:27.019Z,82.36
2022-11-03T19:24:55.204Z,82.52
2022-11-03T19:27:27.740Z,82.72
2022-11-03T19:29:59.693Z,82.80
2022-11-03T19:32:37.969Z,83.04
2022-11-03T19:35:31.564Z,83.31
2022-11-03T19:38:07.161Z,83.44
2022-11-03T19:40:35.815Z,83.44
2022-11-03T19:43:09.960Z,83.44
2022-11-03T19:45:55.725Z,83.47
2022-11-03T19:48:24.983Z,83.30
2022-11-03T19:50:53.732Z,83.28
2022-11-03T19:53:26.948Z,83.24
2022-11-03T19:55:56.979Z,83.20
2022-11-03T19:58:27.622Z,83.23
2022-11-03T20:00:56.984Z,83.07
2022-11-03T20:03:25.312Z,82.98
2022-11-03T20:05:56.944Z,82.99
2022-11-03T20:08:28.887Z,83.06
2022-11-03T20:10:57.034Z,83.18
2022-11-03T20:13:30.278Z,83.11
2022-11-03T20:16:01.131Z,83.23
2022-11-03T20:18:30.322Z,83.23
2022-11-03T20:20:59.046Z,83.19
2022-11-03T20:23:31.702Z,83.30
2022-11-03T20:26:01.935Z,83.25
2022-11-03T20:28:32.560Z,83.20
2022-11-03T20:31:04.276Z,83.11
2022-11-03T20:33:32.416Z,83.14
2022-11-03T20:36:02.230Z,83.07
2022-11-03T20:38:31.906Z,83.01
2022-11-03T20:41:06.676Z,82.93
2022-11-03T20:43:41.265Z,82.78
2022-11-03T20:46:32.792Z,82.63
2022-11-03T20:49:01.157Z,82.57
2022-11-03T20:51:42.187Z,82.51
2022-11-03T20:54:21.799Z,82.38
2022-11-03T20:56:50.001Z,82.50
2022-11-03T20:59:18.538Z,82.52
2022-11-03T21:01:47.109Z,82.29
2022-11-03T21:04:18.536Z,82.42
2022-11-03T21:06:47.552Z,82.68
2022-11-03T21:09:18.153Z,82.78
2022-11-03T21:11:47.885Z,82.96
2022-11-03T21:14:25.275Z,82.84
2022-11-03T21:17:12.036Z,82.81
2022-11-03T21:19:58.669Z,82.85
2022-11-03T21:22:51.985Z,83.04
2022-11-03T21:25:23.769Z,83.19
2022-11-03T21:28:00.116Z,83.33
2022-11-03T21:30:28.435Z,83.32
2022-11-03T21:32:56.713Z,83.35
2022-11-03T21:35:25.053Z,83.48
2022-11-03T21:37:53.415Z,83.58
2022-11-03T21:40:21.795Z,83.67
2022-11-03T21:43:08.779Z,83.67
2022-11-03T21:45:37.176Z,83.85
2022-11-03T21:48:24.672Z,83.93
2022-11-03T21:50:52.956Z,83.84
2022-11-03T21:53:21.168Z,83.79
2022-11-03T21:55:50.013Z,83.82
2022-11-03T21:58:18.290Z,83.92
2022-11-03T22:00:47.438Z,83.93
2022-11-03T22:03:16.388Z,83.86
2022-11-03T22:05:44.692Z,83.86
2022-11-03T22:08:13.201Z,83.77
2022-11-03T22:10:41.556Z,83.79
2022-11-03T22:13:10.518Z,83.79
2022-11-03T22:15:58.161Z,83.82
2022-11-03T22:18:26.436Z,83.96
2022-11-03T22:21:16.990Z,84.00
2022-11-03T22:24:03.917Z,83.97
2022-11-03T22:26:50.631Z,84.12
2022-11-03T22:29:38.640Z,84.11
2022-11-03T22:32:15.638Z,84.08
2022-11-03T22:35:02.750Z,84.08
2022-11-03T22:40:17.361Z,84.24
2022-11-03T22:43:04.698Z,84.40
2022-11-03T22:45:51.564Z,84.38
2022-11-03T22:48:19.711Z,84.51
2022-11-03T22:50:48.010Z,84.53
2022-11-03T22:53:34.925Z,84.67
2022-11-03T22:56:03.130Z,84.72
2022-11-03T22:58:31.321Z,84.92
2022-11-03T23:01:06.655Z,84.86
2022-11-03T23:03:37.309Z,84.82
2022-11-03T23:06:14.986Z,84.85
2022-11-03T23:08:50.576Z,84.98
2022-11-03T23:11:27.119Z,85.21
2022-11-03T23:14:01.158Z,85.12
2022-11-03T23:16:31.987Z,85.03
2022-11-03T23:19:19.726Z,85.11
2022-11-03T23:21:50.523Z,85.18
2022-11-03T23:24:42.160Z,85.13
2022-11-03T23:27:14.023Z,85.15
2022-11-03T23:29:42.252Z,85.25
2022-11-03T23:32:10.559Z,85.31
2022-11-03T23:34:39.773Z,85.37
2022-11-03T23:37:08.078Z,85.57
2022-11-03T23:39:36.358Z,85.73
2022-11-03T23:42:04.768Z,85.62
2022-11-03T23:44:52.778Z,85.54
2022-11-03T23:47:39.781Z,85.68
2022-11-03T23:50:08.634Z,85.76
2022-11-03T23:52:36.870Z,85.90
2022-11-03T23:55:05.432Z,86.16
2022-11-03T23:57:52.416Z,86.17
